Time;durP1;ratioP1;P1;durP2;ratioP2;P2;SDS_P1;SDS_P2;PMS_P1;PMS_P2;Temp;Humidity;BMP_temperature;BMP_pressure;BME280_temperature;BME280_humidity;BME280_pressure;Samples;Min_cycle;Max_cycle;Signal;HPM_P1;HPM_P2
2022/09/10 00:01:13;;;;;;;8.93;8.00;;;15.60;99.90;;;;;;4983319;28;20128;-72
2022/09/10 00:03:39;;;;;;;11.38;8.85;;;15.60;99.90;;;;;;4976169;28;20049;-70
2022/09/10 00:06:07;;;;;;;10.00;9.02;;;15.60;99.90;;;;;;4978640;28;20061;-72
2022/09/10 00:08:33;;;;;;;10.32;9.20;;;15.60;99.90;;;;;;4992373;28;20373;-70
2022/09/10 00:11:04;;;;;;;11.15;9.68;;;16.00;99.90;;;;;;4964837;28;20058;-70
2022/09/10 00:13:29;;;;;;;11.88;10.63;;;15.60;99.90;;;;;;4954396;28;20417;-71
2022/09/10 00:15:55;;;;;;;11.75;10.40;;;15.60;99.90;;;;;;4956680;28;20043;-71
2022/09/10 00:18:21;;;;;;;12.25;11.02;;;15.60;99.90;;;;;;4954233;28;20051;-72
2022/09/10 00:20:50;;;;;;;12.40;11.20;;;15.60;99.90;;;;;;4958250;28;20082;-71
2022/09/10 00:23:22;;;;;;;15.10;12.02;;;15.70;99.90;;;;;;4956508;28;20035;-72
2022/09/10 00:25:48;;;;;;;14.32;12.85;;;15.60;99.90;;;;;;4956914;28;20109;-72
2022/09/10 00:28:15;;;;;;;13.32;11.65;;;15.60;99.90;;;;;;4956091;28;20046;-71
2022/09/10 00:30:41;;;;;;;13.23;11.82;;;15.60;99.90;;;;;;4960114;28;20047;-71
2022/09/10 00:33:08;;;;;;;15.68;12.48;;;15.60;99.90;;;;;;4956121;28;20066;-71
2022/09/10 00:35:35;;;;;;;13.98;12.68;;;15.90;99.90;;;;;;4953043;28;20050;-72
2022/09/10 00:38:01;;;;;;;13.23;11.82;;;15.60;99.90;;;;;;4954626;28;20042;-72
2022/09/10 00:40:27;;;;;;;13.85;12.57;;;15.60;99.90;;;;;;4953318;28;20101;-71
2022/09/10 00:42:53;;;;;;;13.85;12.20;;;16.00;99.90;;;;;;4956758;28;20477;-71
2022/09/10 00:45:25;;;;;;;13.90;12.10;;;15.60;99.90;;;;;;4955909;28;21661;-72
2022/09/10 00:47:55;;;;;;;15.23;13.65;;;15.60;99.90;;;;;;4960915;28;20042;-71
2022/09/10 00:50:30;;;;;;;14.63;13.23;;;15.60;99.90;;;;;;4956124;28;20113;-71
2022/09/10 00:53:01;;;;;;;14.43;12.93;;;15.60;99.90;;;;;;4955518;28;20043;-71
2022/09/10 00:55:27;;;;;;;15.75;13.15;;;15.60;99.90;;;;;;4957928;28;20081;-71
2022/09/10 00:57:57;;;;;;;15.00;13.63;;;15.60;99.90;;;;;;4954378;28;20042;-71
2022/09/10 01:00:23;;;;;;;14.48;12.98;;;15.60;99.90;;;;;;4957267;28;20093;-71
2022/09/10 01:02:49;;;;;;;16.92;13.93;;;16.10;99.90;;;;;;4970036;28;20050;-72
2022/09/10 01:05:16;;;;;;;17.20;14.82;;;15.60;99.90;;;;;;4955785;28;20971;-73
2022/09/10 01:07:42;;;;;;;15.18;13.25;;;15.60;99.90;;;;;;4957480;28;20119;-73
2022/09/10 01:10:20;;;;;;;15.82;14.27;;;15.60;99.90;;;;;;4958366;28;20061;-72
2022/09/10 01:13:13;;;;;;;15.55;13.95;;;15.60;99.90;;;;;;4959179;28;20144;-72
2022/09/10 01:16:00;;;;;;;15.48;13.93;;;15.60;99.90;;;;;;4994544;28;20129;-71
2022/09/10 01:18:58;;;;;;;13.90;12.40;;;15.60;99.90;;;;;;4961305;28;20054;-71
2022/09/10 01:21:30;;;;;;;16.00;13.25;;;14.80;99.90;;;;;;4978594;28;20518;-72
2022/09/10 01:24:09;;;;;;;15.88;14.15;;;15.70;99.90;;;;;;4975286;28;20138;-71
2022/09/10 01:26:59;;;;;;;19.52;15.63;;;15.60;99.90;;;;;;4980874;28;20126;-72
2022/09/10 01:29:53;;;;;;;21.90;16.27;;;15.60;99.90;;;;;;4995235;28;20042;-71
2022/09/10 01:32:26;;;;;;;;;;;15.60;99.90;;;;;;4995453;28;21775;-73
2022/09/10 01:35:05;;;;;;;16.90;15.18;;;15.60;99.90;;;;;;4994094;28;21151;-71
2022/09/10 01:37:34;;;;;;;19.65;16.40;;;15.50;99.90;;;;;;4996557;28;20053;-72
2022/09/10 01:40:02;;;;;;;21.13;18.27;;;15.60;99.90;;;;;;4993180;28;20040;-72
2022/09/10 01:42:28;;;;;;;24.70;19.55;;;15.50;99.90;;;;;;4992031;28;22009;-73
2022/09/10 01:44:56;;;;;;;22.05;18.52;;;15.90;99.90;;;;;;4975686;28;20170;-72
2022/09/10 01:48:14;;;;;;;21.15;19.00;;;15.50;99.90;;;;;;4996445;28;20056;-72
2022/09/10 01:51:15;;;;;;;23.30;19.50;;;15.50;99.90;;;;;;4944811;28;20569;-73
2022/09/10 01:53:58;;;;;;;24.73;22.17;;;15.50;99.90;;;;;;4974902;28;20133;-73
2022/09/10 01:56:24;;;;;;;22.25;18.98;;;15.50;99.90;;;;;;4975583;28;20056;-72
2022/09/10 01:58:53;;;;;;;26.40;21.83;;;15.70;99.90;;;;;;4994043;28;20045;-73
2022/09/10 02:01:32;;;;;;;22.20;19.90;;;15.70;99.90;;;;;;4998764;28;20056;-72
2022/09/10 02:04:04;;;;;;;23.10;20.45;;;15.40;99.90;;;;;;4978635;28;20356;-72
2022/09/10 02:06:33;;;;;;;25.02;21.40;;;15.50;99.90;;;;;;5000623;28;20100;-71
2022/09/10 02:09:00;;;;;;;24.25;21.13;;;15.40;99.90;;;;;;4978641;28;20050;-72
2022/09/10 02:11:27;;;;;;;26.02;22.58;;;15.50;99.90;;;;;;4995819;28;20050;-72
2022/09/10 02:13:54;;;;;;;25.05;21.38;;;15.40;99.90;;;;;;4997955;28;20042;-73
2022/09/10 02:16:36;;;;;;;28.50;22.52;;;16.10;99.90;;;;;;4997950;28;20041;-72
2022/09/10 02:19:03;;;;;;;24.67;22.00;;;15.50;99.90;;;;;;4979771;28;20042;-71
2022/09/10 02:21:30;;;;;;;24.05;20.77;;;15.50;99.90;;;;;;4997776;28;20069;-74
2022/09/10 02:24:08;;;;;;;22.20;19.77;;;15.90;99.90;;;;;;4994649;28;20053;-74
2022/09/10 02:26:38;;;;;;;21.77;18.98;;;15.50;99.90;;;;;;5000183;28;20050;-73
2022/09/10 02:29:05;;;;;;;22.27;19.90;;;15.50;99.90;;;;;;4963242;28;20052;-74
2022/09/10 02:31:31;;;;;;;25.38;21.70;;;15.50;99.90;;;;;;4997198;28;20060;-72
2022/09/10 02:33:57;;;;;;;22.48;20.23;;;15.50;99.90;;;;;;4995448;28;20096;-72
2022/09/10 02:36:24;;;;;;;26.38;20.30;;;15.60;99.90;;;;;;4998852;28;20054;-71
2022/09/10 02:38:55;;;;;;;23.55;20.80;;;15.50;99.90;;;;;;4996702;28;20045;-73
2022/09/10 02:41:24;;;;;;;23.75;21.25;;;15.50;99.90;;;;;;4997206;28;20029;-71
2022/09/10 02:43:51;;;;;;;21.80;19.77;;;15.50;99.90;;;;;;4976840;28;20058;-73
2022/09/10 02:46:17;;;;;;;24.65;22.05;;;15.60;99.90;;;;;;4997052;28;20058;-73
2022/09/10 02:48:43;;;;;;;26.27;22.67;;;15.80;99.90;;;;;;4997860;28;20049;-71
2022/09/10 02:51:09;;;;;;;25.08;22.52;;;15.50;99.90;;;;;;4979913;28;20048;-72
2022/09/10 02:53:34;;;;;;;26.83;23.08;;;15.50;99.90;;;;;;4980872;28;20056;-71
2022/09/10 02:56:01;;;;;;;27.30;24.60;;;15.50;99.90;;;;;;4964325;28;20556;-73
2022/09/10 02:58:30;;;;;;;29.70;23.38;;;15.50;99.90;;;;;;4994583;28;20740;-72
2022/09/10 03:01:18;;;;;;;28.23;25.05;;;15.40;99.90;;;;;;4979263;28;20516;-72
2022/09/10 03:03:53;;;;;;;28.27;25.27;;;15.40;99.90;;;;;;4994438;28;20050;-72
2022/09/10 03:06:20;;;;;;;27.50;23.77;;;15.40;99.90;;;;;;4979527;28;20058;-73
2022/09/10 03:08:46;;;;;;;28.67;25.67;;;15.40;99.90;;;;;;4996794;28;20050;-74
2022/09/10 03:11:15;;;;;;;32.38;27.40;;;15.10;99.90;;;;;;4991707;28;20095;-72
2022/09/10 03:13:41;;;;;;;35.20;27.23;;;15.30;99.90;;;;;;4996291;28;20056;-72
2022/09/10 03:16:09;;;;;;;30.45;27.02;;;15.70;99.90;;;;;;4995479;28;20477;-73
2022/09/10 03:18:35;;;;;;;35.40;28.83;;;15.40;99.90;;;;;;4995591;28;20713;-72
2022/09/10 03:21:19;;;;;;;37.03;29.48;;;15.30;99.90;;;;;;4981525;28;20448;-73
2022/09/10 03:23:46;;;;;;;32.60;28.02;;;15.30;99.90;;;;;;4976075;28;20038;-74
2022/09/10 03:26:13;;;;;;;35.38;28.50;;;15.30;99.90;;;;;;4997575;28;20057;-73
2022/09/10 03:28:40;;;;;;;34.42;29.05;;;15.20;99.90;;;;;;4978095;28;20489;-72
2022/09/10 03:31:06;;;;;;;32.92;25.90;;;15.40;99.90;;;;;;4978689;28;20056;-72
2022/09/10 03:33:32;;;;;;;29.85;26.65;;;15.30;99.90;;;;;;4980258;28;20101;-71
2022/09/10 03:35:59;;;;;;;35.13;28.83;;;15.20;99.90;;;;;;4978367;28;20073;-72
2022/09/10 03:38:26;;;;;;;31.48;27.55;;;15.30;99.90;;;;;;4996266;28;20126;-73
2022/09/10 03:40:52;;;;;;;34.13;28.80;;;15.20;99.90;;;;;;4981287;28;20057;-71
2022/09/10 03:43:21;;;;;;;32.00;26.73;;;15.20;99.90;;;;;;4983287;28;20038;-73
2022/09/10 03:45:50;;;;;;;36.60;29.65;;;15.20;99.90;;;;;;4986076;28;20132;-72
2022/09/10 03:48:17;;;;;;;31.83;26.10;;;15.20;99.90;;;;;;4987058;28;20435;-73
2022/09/10 03:50:44;;;;;;;32.72;27.48;;;15.30;99.90;;;;;;5007693;28;20088;-72
2022/09/10 03:53:14;;;;;;;31.83;25.92;;;15.20;99.90;;;;;;5002654;28;20041;-72
2022/09/10 03:55:47;;;;;;;29.75;26.55;;;15.20;99.90;;;;;;5006678;28;20029;-72
2022/09/10 03:58:14;;;;;;;28.05;24.65;;;15.20;99.90;;;;;;5008496;28;20124;-72
2022/09/10 04:00:41;;;;;;;35.08;26.65;;;15.20;99.90;;;;;;5003900;28;20140;-72
2022/09/10 04:03:07;;;;;;;35.28;26.33;;;15.20;99.90;;;;;;4989841;28;20038;-73
2022/09/10 04:05:33;;;;;;;31.90;27.83;;;15.20;99.90;;;;;;5003912;28;20172;-72
2022/09/10 04:08:00;;;;;;;27.27;24.38;;;15.30;99.90;;;;;;5002384;28;20030;-72
2022/09/10 04:10:27;;;;;;;31.85;26.20;;;15.30;99.90;;;;;;4986550;28;20043;-71
2022/09/10 04:12:52;;;;;;;29.05;25.95;;;15.30;99.90;;;;;;4985610;28;20078;-73
2022/09/10 04:15:20;;;;;;;32.22;26.88;;;15.30;99.90;;;;;;4985999;28;20081;-74
2022/09/10 04:17:50;;;;;;;33.45;28.15;;;15.30;99.90;;;;;;4984753;28;20051;-73
2022/09/10 04:20:17;;;;;;;36.53;28.58;;;15.30;99.90;;;;;;4986393;28;20081;-73
2022/09/10 04:22:42;;;;;;;36.00;29.35;;;15.50;99.90;;;;;;4984632;28;20705;-72
2022/09/10 04:25:08;;;;;;;36.45;27.73;;;15.00;99.90;;;;;;4986173;28;20038;-72
2022/09/10 04:27:33;;;;;;;31.10;27.00;;;15.30;99.90;;;;;;4981767;28;20131;-72
2022/09/10 04:29:59;;;;;;;31.98;25.38;;;15.30;99.90;;;;;;4987380;28;20073;-73
2022/09/10 04:32:24;;;;;;;35.80;29.27;;;15.30;99.90;;;;;;4987584;28;20397;-73
2022/09/10 04:34:50;;;;;;;31.25;26.98;;;15.30;99.90;;;;;;4987054;28;20460;-73
2022/09/10 04:37:17;;;;;;;29.42;26.20;;;15.30;99.90;;;;;;4982672;28;20125;-73
2022/09/10 04:39:43;;;;;;;29.38;24.40;;;15.30;99.90;;;;;;4983990;28;20406;-72
2022/09/10 04:42:09;;;;;;;27.17;24.27;;;15.30;99.90;;;;;;4982739;28;20049;-73
2022/09/10 04:44:34;;;;;;;30.95;24.65;;;15.70;99.90;;;;;;4969969;28;20054;-73
2022/09/10 04:47:00;;;;;;;29.40;25.33;;;15.30;99.90;;;;;;4989875;28;20049;-73
2022/09/10 04:49:25;;;;;;;26.40;22.98;;;15.40;99.90;;;;;;4985238;28;20133;-73
2022/09/10 04:51:51;;;;;;;29.20;23.90;;;15.30;99.90;;;;;;4984011;28;20487;-73
2022/09/10 04:54:18;;;;;;;25.20;22.50;;;15.40;99.90;;;;;;4984910;28;20049;-73
2022/09/10 04:56:46;;;;;;;30.15;23.95;;;15.30;99.90;;;;;;4984887;28;20038;-73
2022/09/10 04:59:12;;;;;;;26.25;21.38;;;15.30;99.90;;;;;;4967973;28;20050;-73
2022/09/10 05:01:37;;;;;;;26.30;23.25;;;15.30;99.90;;;;;;4980224;28;20054;-73
2022/09/10 05:04:03;;;;;;;30.55;22.67;;;15.30;99.90;;;;;;4986608;28;20042;-73
2022/09/10 05:06:29;;;;;;;25.15;22.25;;;15.30;99.90;;;;;;4984142;28;20049;-74
2022/09/10 05:08:55;;;;;;;23.63;21.33;;;15.30;99.90;;;;;;4986110;28;20050;-72
2022/09/10 05:11:21;;;;;;;25.52;22.75;;;15.30;99.90;;;;;;4957117;28;20058;-72
2022/09/10 05:13:47;;;;;;;24.20;20.90;;;15.30;99.90;;;;;;4966406;28;20081;-78
2022/09/10 05:16:13;;;;;;;26.63;22.45;;;15.20;99.90;;;;;;4968132;28;20085;-74
2022/09/10 05:18:38;;;;;;;28.13;21.58;;;15.30;99.90;;;;;;4970306;28;20102;-74
2022/09/10 05:21:04;;;;;;;25.40;21.95;;;15.20;99.90;;;;;;4969635;28;20050;-74
2022/09/10 05:23:30;;;;;;;26.52;20.90;;;15.20;99.90;;;;;;4973266;28;20046;-72
2022/09/10 05:25:57;;;;;;;24.23;21.42;;;15.30;99.90;;;;;;4958309;28;20479;-75
2022/09/10 05:28:23;;;;;;;27.00;22.60;;;15.30;99.90;;;;;;4973448;28;20419;-75
2022/09/10 05:30:49;;;;;;;22.30;19.90;;;15.30;99.90;;;;;;4971806;28;20086;-74
2022/09/10 05:33:15;;;;;;;22.58;19.55;;;15.30;99.90;;;;;;4967841;28;20058;-74
2022/09/10 05:35:41;;;;;;;22.20;19.05;;;15.30;99.90;;;;;;4965842;28;20031;-71
2022/09/10 05:38:10;;;;;;;25.65;20.55;;;15.30;99.90;;;;;;4975526;28;20483;-74
2022/09/10 05:40:35;;;;;;;22.90;20.50;;;15.30;99.90;;;;;;4971403;28;20050;-74
2022/09/10 05:43:02;;;;;;;22.42;20.10;;;15.30;99.90;;;;;;4962535;28;20150;-72
2022/09/10 05:45:27;;;;;;;21.80;19.45;;;15.40;99.90;;;;;;4968338;28;20474;-74
2022/09/10 05:47:53;;;;;;;23.40;21.08;;;15.30;99.90;;;;;;4958959;28;20050;-74
2022/09/10 05:50:18;;;;;;;22.63;19.55;;;15.40;99.90;;;;;;4953597;28;20038;-75
2022/09/10 05:52:45;;;;;;;25.55;19.15;;;16.00;99.90;;;;;;4972651;28;20152;-73
2022/09/10 05:55:11;;;;;;;24.23;19.50;;;16.30;99.90;;;;;;4974255;28;20061;-74
2022/09/10 05:57:39;;;;;;;22.15;18.95;;;15.40;99.90;;;;;;4968402;28;20475;-72
2022/09/10 06:00:07;;;;;;;23.35;20.88;;;15.40;99.90;;;;;;4970739;28;20052;-73
2022/09/10 06:02:33;;;;;;;20.30;17.30;;;15.40;99.90;;;;;;4971419;28;20119;-74
2022/09/10 06:04:59;;;;;;;26.40;18.80;;;15.40;99.90;;;;;;4969476;28;20486;-74
2022/09/10 06:07:29;;;;;;;21.58;18.88;;;15.60;99.90;;;;;;4972538;28;20121;-73
2022/09/10 06:09:56;;;;;;;21.63;19.45;;;15.40;99.90;;;;;;4970877;28;20406;-74
2022/09/10 06:12:22;;;;;;;23.42;18.45;;;15.40;99.90;;;;;;5004813;28;20068;-73
2022/09/10 06:14:48;;;;;;;21.92;18.65;;;15.40;99.90;;;;;;4968090;28;20525;-73
2022/09/10 06:17:16;;;;;;;25.45;20.23;;;15.40;99.90;;;;;;4994418;28;20046;-73
2022/09/10 06:19:43;;;;;;;24.08;19.25;;;15.40;99.90;;;;;;4982283;28;20458;-72
2022/09/10 06:22:09;;;;;;;20.40;18.30;;;15.40;99.90;;;;;;4999525;28;20050;-74
2022/09/10 06:24:36;;;;;;;23.35;20.00;;;15.40;99.90;;;;;;5004908;28;20054;-73
2022/09/10 06:27:02;;;;;;;26.50;19.75;;;15.40;99.90;;;;;;5007235;28;20124;-74
2022/09/10 06:29:28;;;;;;;22.17;18.85;;;15.40;99.90;;;;;;4985537;28;20085;-72
2022/09/10 06:31:54;;;;;;;23.90;20.52;;;15.30;99.90;;;;;;5006180;28;20049;-74
2022/09/10 06:34:19;;;;;;;22.27;19.95;;;15.30;99.90;;;;;;5006709;28;20545;-73
2022/09/10 06:36:49;;;;;;;22.25;19.85;;;15.30;99.90;;;;;;5004684;28;20109;-73
2022/09/10 06:39:15;;;;;;;27.60;21.50;;;15.40;99.90;;;;;;5002516;28;21419;-74
2022/09/10 06:41:41;;;;;;;27.45;20.60;;;15.40;99.90;;;;;;4983606;28;20038;-72
2022/09/10 06:44:08;;;;;;;24.98;20.50;;;15.30;99.90;;;;;;5002852;28;20042;-74
2022/09/10 06:46:34;;;;;;;27.30;20.17;;;15.40;99.90;;;;;;4990900;28;20397;-73
2022/09/10 06:49:02;;;;;;;25.15;21.13;;;15.30;99.90;;;;;;4988965;28;20125;-73
2022/09/10 06:51:28;;;;;;;27.27;21.40;;;15.30;99.90;;;;;;4988543;28;20080;-72
2022/09/10 06:53:55;;;;;;;23.63;19.52;;;15.30;99.90;;;;;;5004998;28;20054;-72
2022/09/10 06:56:20;;;;;;;30.05;19.40;;;15.40;99.90;;;;;;5009043;28;20038;-72
2022/09/10 06:58:46;;;;;;;24.92;20.92;;;15.40;99.90;;;;;;5006654;28;20401;-72
2022/09/10 07:01:16;;;;;;;26.10;21.20;;;15.40;99.90;;;;;;4973793;28;20069;-73
2022/09/10 07:03:42;;;;;;;26.20;21.35;;;15.40;99.90;;;;;;5004821;28;20092;-72
2022/09/10 07:06:15;;;;;;;30.00;22.00;;;15.60;99.90;;;;;;4992683;28;20056;-72
2022/09/10 07:08:41;;;;;;;26.85;20.65;;;15.40;99.90;;;;;;5003555;28;20050;-72
2022/09/10 07:11:11;;;;;;;26.13;19.65;;;15.40;99.90;;;;;;4988729;28;20595;-73
2022/09/10 07:13:38;;;;;;;32.55;22.38;;;15.50;99.90;;;;;;5004135;28;20125;-72
2022/09/10 07:16:04;;;;;;;33.20;21.80;;;15.50;99.90;;;;;;4986780;28;20077;-73
2022/09/10 07:18:30;;;;;;;32.15;21.02;;;15.60;99.90;;;;;;5006942;28;20153;-73
2022/09/10 07:21:13;;;;;;;32.55;22.85;;;15.60;99.90;;;;;;5007143;28;20536;-74
2022/09/10 07:23:39;;;;;;;35.55;23.35;;;15.70;99.90;;;;;;4977510;28;20044;-73
2022/09/10 07:26:16;;;;;;;31.45;20.17;;;15.60;99.90;;;;;;4974943;28;20073;-75
2022/09/10 07:28:42;;;;;;;33.65;22.92;;;16.30;99.90;;;;;;5006962;28;20045;-75
2022/09/10 07:31:23;;;;;;;29.92;21.75;;;15.60;99.90;;;;;;4998720;28;20487;-76
2022/09/10 07:33:49;;;;;;;35.30;22.33;;;15.50;99.90;;;;;;4315099;28;10000678;-77
2022/09/10 07:36:16;;;;;;;32.17;21.23;;;15.60;99.90;;;;;;4990680;28;20034;-78
2022/09/10 07:38:42;;;;;;;32.92;21.15;;;15.60;99.90;;;;;;4989764;28;20054;-77
2022/09/10 07:41:12;;;;;;;32.90;21.70;;;16.40;99.90;;;;;;4988088;28;20556;-77
2022/09/10 07:43:39;;;;;;;29.73;20.58;;;15.60;99.90;;;;;;5009189;28;20682;-77
2022/09/10 07:46:06;;;;;;;28.08;21.92;;;15.70;99.90;;;;;;5004742;28;20042;-77
2022/09/10 07:48:32;;;;;;;30.10;20.27;;;15.70;99.90;;;;;;4976110;28;20640;-78
2022/09/10 07:51:03;;;;;;;28.65;21.15;;;15.80;99.90;;;;;;4984501;28;20457;-76
2022/09/10 07:53:29;;;;;;;34.20;21.38;;;16.60;99.90;;;;;;4991805;28;20045;-76
2022/09/10 07:55:59;;;;;;;31.23;20.95;;;15.80;99.90;;;;;;4989695;28;20517;-77
2022/09/10 07:58:26;;;;;;;32.55;20.98;;;15.80;99.90;;;;;;4986591;28;20203;-76
2022/09/10 08:00:52;;;;;;;34.53;22.38;;;16.30;99.90;;;;;;4989177;28;20141;-77
2022/09/10 08:03:20;;;;;;;34.75;21.05;;;15.80;99.90;;;;;;5006166;28;20046;-77
2022/09/10 08:05:46;;;;;;;35.03;23.17;;;15.80;99.90;;;;;;4973830;28;20053;-76
2022/09/10 08:08:12;;;;;;;31.73;21.40;;;15.80;99.90;;;;;;4972550;28;20033;-76
2022/09/10 08:10:38;;;;;;;29.35;21.08;;;16.00;99.90;;;;;;4991743;28;20494;-78
2022/09/10 08:13:03;;;;;;;31.83;21.52;;;15.80;99.90;;;;;;5000434;28;20050;-75
2022/09/10 08:15:29;;;;;;;28.13;20.08;;;15.90;99.90;;;;;;4975832;28;20405;-76
2022/09/10 08:17:54;;;;;;;34.33;22.27;;;15.90;99.90;;;;;;4975693;28;20057;-75
2022/09/10 08:20:25;;;;;;;26.95;19.08;;;15.90;99.90;;;;;;5008499;28;20041;-75
2022/09/10 08:22:51;;;;;;;27.55;19.83;;;15.90;99.90;;;;;;5003614;28;20045;-75
2022/09/10 08:25:19;;;;;;;28.52;20.70;;;15.90;99.90;;;;;;4975716;28;20042;-75
2022/09/10 08:27:45;;;;;;;32.58;22.30;;;16.00;99.90;;;;;;4991070;28;20037;-75
2022/09/10 08:30:11;;;;;;;32.60;21.30;;;16.00;99.90;;;;;;5007144;28;20579;-75
2022/09/10 08:32:36;;;;;;;31.77;20.80;;;16.00;99.90;;;;;;4986200;28;20073;-75
2022/09/10 08:35:04;;;;;;;30.17;22.17;;;16.00;99.90;;;;;;5005871;28;20045;-75
2022/09/10 08:37:31;;;;;;;31.30;21.27;;;16.10;99.90;;;;;;4975003;28;20508;-75
2022/09/10 08:39:57;;;;;;;23.25;20.55;;;16.10;99.90;;;;;;4991693;28;20417;-74
2022/09/10 08:42:38;;;;;;;29.58;21.48;;;16.10;99.90;;;;;;5006791;28;20034;-75
2022/09/10 08:45:30;;;;;;;31.77;20.77;;;16.10;99.90;;;;;;4983613;28;20052;-75
2022/09/10 08:48:17;;;;;;;26.35;19.98;;;16.20;99.90;;;;;;5006050;28;20050;-76
2022/09/10 08:50:58;;;;;;;28.65;19.23;;;16.20;99.90;;;;;;4989926;28;20065;-77
2022/09/10 08:53:52;;;;;;;22.70;19.15;;;16.20;99.90;;;;;;5007998;28;20538;-77
2022/09/10 08:56:21;;;;;;;23.95;18.88;;;16.20;99.90;;;;;;4982695;28;20445;-77
2022/09/10 08:58:57;;;;;;;28.55;19.00;;;16.30;99.90;;;;;;4991367;28;20125;-77
2022/09/10 09:01:39;;;;;;;24.65;16.92;;;16.30;99.90;;;;;;5003461;28;20046;-77
2022/09/10 09:04:16;;;;;;;24.33;18.08;;;16.30;99.90;;;;;;5005983;28;20556;-77
2022/09/10 09:06:57;;;;;;;21.88;17.33;;;16.40;99.90;;;;;;5003662;28;20045;-77
2022/09/10 09:09:22;;;;;;;24.20;17.23;;;16.40;99.90;;;;;;4987355;28;20041;-78
2022/09/10 09:11:59;;;;;;;23.63;17.92;;;16.40;99.90;;;;;;4971953;28;20507;-73
2022/09/10 09:14:44;;;;;;;23.30;16.27;;;16.40;99.90;;;;;;4966256;28;20410;-75
2022/09/10 09:17:27;;;;;;;18.67;15.88;;;16.40;99.90;;;;;;4961320;28;20513;-76
2022/09/10 09:20:14;;;;;;;19.15;16.42;;;16.40;99.90;;;;;;4965640;28;20491;-72
2022/09/10 09:23:05;;;;;;;27.02;17.83;;;16.40;99.90;;;;;;4969363;28;20043;-73
2022/09/10 09:25:52;;;;;;;24.00;16.52;;;16.40;99.90;;;;;;4968701;28;20129;-71
2022/09/10 09:28:32;;;;;;;27.17;16.50;;;16.40;99.90;;;;;;4960240;28;20407;-73
2022/09/10 09:31:03;;;;;;;29.92;17.27;;;16.40;99.90;;;;;;4965811;28;20090;-69
2022/09/10 09:33:29;;;;;;;34.92;17.70;;;17.10;99.90;;;;;;4964177;28;20051;-71
2022/09/10 09:35:59;;;;;;;23.83;16.75;;;16.60;99.90;;;;;;4965873;28;20043;-72
2022/09/10 09:38:32;;;;;;;20.67;16.58;;;16.90;99.90;;;;;;4963508;28;20491;-71
2022/09/10 09:41:06;;;;;;;22.48;17.33;;;16.50;99.90;;;;;;4964652;28;20406;-71
2022/09/10 09:44:13;;;;;;;21.23;17.23;;;16.50;99.90;;;;;;4968933;28;20093;-71
2022/09/10 09:46:39;;;;;;;21.17;17.63;;;16.50;99.90;;;;;;4959632;28;20561;-71
2022/09/10 09:49:11;;;;;;;24.35;18.48;;;16.50;99.90;;;;;;4966451;28;20372;-72
2022/09/10 09:51:37;;;;;;;26.48;19.30;;;16.50;99.90;;;;;;4964266;28;20055;-71
2022/09/10 09:54:10;;;;;;;25.67;18.63;;;16.50;99.90;;;;;;4949206;28;20058;-71
2022/09/10 09:56:44;;;;;;;28.92;18.73;;;16.50;99.90;;;;;;4963795;28;20694;-71
2022/09/10 09:59:39;;;;;;;;;;;16.50;99.90;;;;;;4965196;28;20043;-71
2022/09/10 10:02:11;;;;;;;26.13;18.85;;;16.50;99.90;;;;;;4957826;28;19981;-72
2022/09/10 10:04:40;;;;;;;24.67;18.27;;;16.50;99.90;;;;;;4966843;28;20047;-70
2022/09/10 10:07:06;;;;;;;28.30;19.20;;;16.50;99.90;;;;;;4965840;28;20373;-71
2022/09/10 10:09:37;;;;;;;27.02;18.25;;;16.60;99.90;;;;;;4965235;28;20043;-71
2022/09/10 10:12:05;;;;;;;23.23;16.77;;;16.60;99.90;;;;;;5001514;28;20060;-71
2022/09/10 10:14:30;;;;;;;23.58;17.83;;;16.60;99.90;;;;;;4987428;28;20038;-71
2022/09/10 10:16:57;;;;;;;21.70;16.35;;;16.60;99.90;;;;;;5006682;28;20057;-70
2022/09/10 10:19:39;;;;;;;22.85;16.98;;;16.60;99.90;;;;;;5002231;28;20038;-71
2022/09/10 10:22:13;;;;;;;22.85;16.83;;;16.60;99.90;;;;;;5009758;28;20563;-73
2022/09/10 10:24:44;;;;;;;23.35;16.58;;;16.60;99.90;;;;;;5006072;28;20489;-74
2022/09/10 10:27:25;;;;;;;20.92;16.67;;;16.60;99.90;;;;;;5008198;28;20046;-74
2022/09/10 10:29:54;;;;;;;24.48;16.95;;;16.70;99.90;;;;;;5011281;28;20045;-74
2022/09/10 10:32:22;;;;;;;21.50;16.80;;;16.70;99.90;;;;;;5006051;28;20370;-74
2022/09/10 10:35:18;;;;;;;22.42;16.10;;;16.70;99.90;;;;;;5009508;28;20551;-73
2022/09/10 10:38:09;;;;;;;20.25;15.80;;;16.90;99.90;;;;;;5011587;28;20042;-73
2022/09/10 10:40:47;;;;;;;24.95;15.50;;;16.70;99.90;;;;;;4987981;28;20085;-74
2022/09/10 10:43:13;;;;;;;20.15;15.27;;;16.80;99.90;;;;;;5008223;28;20049;-73
2022/09/10 10:45:56;;;;;;;22.25;14.65;;;16.80;99.90;;;;;;5011171;28;20064;-72
2022/09/10 10:48:54;;;;;;;18.77;15.55;;;16.80;99.90;;;;;;5002257;28;20031;-73
2022/09/10 10:51:44;;;;;;;16.05;13.57;;;16.80;99.90;;;;;;5001569;28;20241;-72
2022/09/10 10:54:45;;;;;;;22.65;14.85;;;16.90;99.90;;;;;;4991286;28;20112;-71
2022/09/10 10:57:26;;;;;;;17.73;14.57;;;16.90;99.90;;;;;;4991262;28;20169;-72
2022/09/10 11:00:01;;;;;;;20.42;14.15;;;17.10;99.90;;;;;;5011261;28;20076;-73
2022/09/10 11:02:37;;;;;;;20.13;13.93;;;17.00;99.90;;;;;;5007552;28;20042;-71
2022/09/10 11:05:34;;;;;;;15.70;13.20;;;17.10;99.90;;;;;;5007058;28;20045;-72
2022/09/10 11:08:18;;;;;;;19.90;12.27;;;17.10;99.90;;;;;;5009255;28;20034;-74
2022/09/10 11:10:49;;;;;;;18.42;13.77;;;17.20;99.90;;;;;;5005362;28;20104;-71
2022/09/10 11:13:30;;;;;;;17.98;13.60;;;17.20;99.90;;;;;;4993208;28;20442;-72
2022/09/10 11:16:05;;;;;;;18.17;12.85;;;17.30;99.90;;;;;;5006284;28;20508;-73
2022/09/10 11:18:37;;;;;;;17.90;13.77;;;17.30;99.90;;;;;;5004674;28;20107;-73
2022/09/10 11:21:37;;;;;;;19.60;12.95;;;17.60;99.90;;;;;;5004840;28;20057;-73
2022/09/10 11:24:19;;;;;;;18.60;13.95;;;17.40;99.90;;;;;;5007357;28;20048;-73
2022/09/10 11:27:15;;;;;;;18.25;13.35;;;17.40;99.90;;;;;;5010517;28;20085;-73
2022/09/10 11:29:56;;;;;;;17.48;13.05;;;17.80;99.90;;;;;;5004960;28;20053;-73
2022/09/10 11:32:38;;;;;;;18.40;12.77;;;17.50;99.90;;;;;;5008550;28;20044;-73
2022/09/10 11:35:33;;;;;;;30.60;22.42;;;17.50;99.90;;;;;;4993054;28;20034;-73
2022/09/10 11:38:11;;;;;;;;;;;17.50;99.90;;;;;;4989073;28;20551;-73
2022/09/10 11:40:59;;;;;;;21.77;13.93;;;17.50;99.90;;;;;;5004522;28;19929;-74
2022/09/10 11:43:46;;;;;;;16.42;13.15;;;17.50;99.90;;;;;;5008424;28;20038;-73
2022/09/10 11:46:32;;;;;;;18.80;12.90;;;17.50;99.90;;;;;;5002828;28;20075;-73
2022/09/10 11:49:14;;;;;;;15.80;11.80;;;17.50;99.90;;;;;;5005975;28;20522;-73
2022/09/10 11:51:40;;;;;;;14.63;12.25;;;17.60;99.90;;;;;;5005108;28;20038;-73
2022/09/10 11:54:15;;;;;;;15.15;11.68;;;17.70;99.90;;;;;;5008785;28;20041;-73
2022/09/10 11:56:59;;;;;;;19.67;13.40;;;17.70;99.90;;;;;;5005686;28;20054;-73
2022/09/10 11:59:55;;;;;;;14.40;12.30;;;17.70;99.90;;;;;;5000030;28;20060;-73
2022/09/10 12:02:26;;;;;;;18.90;14.55;;;17.80;99.90;;;;;;5004142;28;20046;-74
2022/09/10 12:05:00;;;;;;;19.45;13.80;;;17.80;99.90;;;;;;5006490;28;20537;-73
2022/09/10 12:07:58;;;;;;;18.45;13.70;;;17.80;99.90;;;;;;5000930;28;20324;-73
2022/09/10 12:10:33;;;;;;;16.65;12.25;;;17.80;99.90;;;;;;4949555;28;20107;-73
2022/09/10 12:12:59;;;;;;;18.17;13.25;;;17.80;99.90;;;;;;4990786;28;20399;-73
2022/09/10 12:15:32;;;;;;;15.10;13.43;;;17.80;99.90;;;;;;5003659;28;21018;-73
2022/09/10 12:18:21;;;;;;;17.13;13.98;;;17.80;99.90;;;;;;5009491;28;20378;-73
2022/09/10 12:21:01;;;;;;;16.52;14.27;;;17.80;99.90;;;;;;5004209;28;20038;-73
2022/09/10 12:23:33;;;;;;;14.68;13.02;;;17.90;99.90;;;;;;5001968;28;20061;-73
2022/09/10 12:26:11;;;;;;;15.23;11.70;;;17.90;99.90;;;;;;4987817;28;20049;-73
2022/09/10 12:28:52;;;;;;;15.88;12.35;;;17.90;99.90;;;;;;4985802;28;20042;-73
2022/09/10 12:31:19;;;;;;;13.68;12.13;;;18.00;99.90;;;;;;5004223;28;20041;-73
2022/09/10 12:33:45;;;;;;;17.58;12.50;;;18.10;99.90;;;;;;5007048;28;20045;-73
2022/09/10 12:36:34;;;;;;;14.13;11.65;;;18.10;99.90;;;;;;4986452;28;20044;-73
2022/09/10 12:39:27;;;;;;;14.88;12.80;;;18.30;99.90;;;;;;5006379;28;20061;-73
2022/09/10 12:41:54;;;;;;;15.13;11.60;;;18.50;99.90;;;;;;5003473;28;20386;-74
2022/09/10 12:44:35;;;;;;;12.63;10.63;;;18.60;99.90;;;;;;5005772;28;20128;-73
2022/09/10 12:47:16;;;;;;;11.23;8.90;;;18.70;99.90;;;;;;5006817;28;20038;-74
2022/09/10 12:49:54;;;;;;;11.75;9.00;;;18.80;99.90;;;;;;5003091;28;20128;-73
2022/09/10 12:52:39;;;;;;;12.05;8.57;;;19.00;99.90;;;;;;5004763;28;20084;-73